Time;durP1;ratioP1;P1;durP2;ratioP2;P2;SDS_P1;SDS_P2;PMS_P1;PMS_P2;Temp;Humidity;BMP_temperature;BMP_pressure;BME280_temperature;BME280_humidity;BME280_pressure;Samples;Min_cycle;Max_cycle;Signal;HPM_P1;HPM_P2
2023/07/07 00:01:21;;;;;;;1.40;1.30;;;;;;;;;;4946836;28;20488;-74
2023/07/07 00:03:46;;;;;;;2.22;1.60;;;;;;;;;;4946318;28;20398;-75
2023/07/07 00:06:12;;;;;;;1.88;1.42;;;;;;;;;;4945863;28;20130;-74
2023/07/07 00:08:37;;;;;;;2.35;1.70;;;;;;;;;;4951488;28;20102;-75
2023/07/07 00:11:04;;;;;;;1.67;1.40;;;;;;;;;;4959454;28;20439;-74
2023/07/07 00:13:30;;;;;;;5.25;1.58;;;;;;;;;;4946399;28;20283;-74
2023/07/07 00:16:00;;;;;;;1.55;1.45;;;;;;;;;;4945227;28;20023;-74
2023/07/07 00:18:29;;;;;;;1.58;1.48;;;;;;;;;;4947273;28;20591;-75
2023/07/07 00:20:59;;;;;;;2.75;1.60;;;;;;;;;;4947126;28;20057;-75
2023/07/07 00:23:25;;;;;;;2.03;1.60;;;;;;;;;;4948706;28;20492;-74
2023/07/07 00:25:58;;;;;;;2.40;1.60;;;;;;;;;;4951076;28;20031;-74
2023/07/07 00:28:23;;;;;;;2.42;1.98;;;;;;;;;;4948366;28;20031;-74
2023/07/07 00:30:49;;;;;;;2.80;1.33;;;;;;;;;;4953558;28;20033;-73
2023/07/07 00:33:14;;;;;;;1.50;1.30;;;;;;;;;;4952069;28;20471;-74
2023/07/07 00:35:48;;;;;;;2.03;1.83;;;;;;;;;;4952334;28;20268;-74
2023/07/07 00:38:14;;;;;;;1.38;1.27;;;;;;;;;;4943289;28;20110;-74
2023/07/07 00:40:39;;;;;;;2.00;1.30;;;;;;;;;;4947410;28;20110;-74
2023/07/07 00:43:10;;;;;;;2.25;1.50;;;;;;;;;;4950834;28;20435;-74
2023/07/07 00:45:36;;;;;;;1.55;1.30;;;;;;;;;;4948777;28;20552;-74
2023/07/07 00:48:05;;;;;;;1.65;1.55;;;;;;;;;;4948308;28;20035;-75
2023/07/07 00:50:38;;;;;;;1.48;1.35;;;;;;;;;;4946762;28;20375;-74
2023/07/07 00:53:04;;;;;;;1.50;1.40;;;;;;;;;;4958425;28;20044;-74
2023/07/07 00:55:39;;;;;;;1.60;1.50;;;;;;;;;;4958925;28;20480;-74
2023/07/07 00:58:07;;;;;;;2.75;1.60;;;;;;;;;;4951213;28;20031;-74
2023/07/07 01:00:35;;;;;;;1.88;1.30;;;;;;;;;;4949524;28;20055;-74
2023/07/07 01:03:05;;;;;;;1.08;0.98;;;;;;;;;;4948076;28;20035;-73
2023/07/07 01:05:31;;;;;;;1.40;1.30;;;;;;;;;;4953344;28;20059;-74
2023/07/07 01:08:02;;;;;;;1.30;1.17;;;;;;;;;;4956429;28;20039;-74
2023/07/07 01:10:27;;;;;;;2.27;1.33;;;;;;;;;;4946982;28;20522;-74
2023/07/07 01:12:52;;;;;;;2.90;1.30;;;;;;;;;;4946118;28;20023;-74
2023/07/07 01:15:21;;;;;;;1.50;1.10;;;;;;;;;;4946555;28;20038;-74
2023/07/07 01:18:13;;;;;;;1.58;0.90;;;;;;;;;;4951503;28;20026;-73
2023/07/07 01:21:01;;;;;;;1.40;1.30;;;;;;;;;;4950674;28;20114;-74
2023/07/07 01:23:45;;;;;;;1.30;1.20;;;;;;;;;;4941983;28;20023;-74
2023/07/07 01:26:14;;;;;;;1.42;1.33;;;;;;;;;;4945377;28;20066;-75
2023/07/07 01:29:07;;;;;;;1.50;1.23;;;;;;;;;;4947508;28;20147;-74
2023/07/07 01:31:40;;;;;;;1.33;1.23;;;;;;;;;;4943999;28;20038;-74
2023/07/07 01:34:10;;;;;;;1.70;1.48;;;;;;;;;;4946720;28;20155;-74
2023/07/07 01:36:35;;;;;;;2.10;1.70;;;;;;;;;;4952237;28;20027;-74
2023/07/07 01:39:01;;;;;;;1.10;1.00;;;;;;;;;;4951569;28;20038;-74
2023/07/07 01:41:33;;;;;;;1.48;1.38;;;;;;;;;;4949732;28;20551;-75
2023/07/07 01:44:08;;;;;;;1.70;1.60;;;;;;;;;;4946296;28;20027;-75
2023/07/07 01:46:44;;;;;;;1.40;1.30;;;;;;;;;;4944319;28;20024;-74
2023/07/07 01:49:22;;;;;;;2.03;1.58;;;;;;;;;;4949392;28;20125;-74
2023/07/07 01:51:50;;;;;;;2.30;1.60;;;;;;;;;;4952319;28;20664;-74
2023/07/07 01:54:18;;;;;;;2.58;1.40;;;;;;;;;;4948336;28;20023;-74
2023/07/07 01:56:45;;;;;;;3.58;1.60;;;;;;;;;;4948703;28;20038;-74
2023/07/07 01:59:11;;;;;;;2.13;1.20;;;;;;;;;;4952943;28;20046;-74
2023/07/07 02:01:37;;;;;;;1.70;1.60;;;;;;;;;;4951892;28;20129;-75
2023/07/07 02:04:02;;;;;;;2.17;1.70;;;;;;;;;;4954518;28;20020;-74
2023/07/07 02:06:27;;;;;;;2.25;1.45;;;;;;;;;;4946460;28;20055;-75
2023/07/07 02:08:53;;;;;;;1.40;1.15;;;;;;;;;;4949351;28;20041;-75
2023/07/07 02:11:18;;;;;;;2.08;1.48;;;;;;;;;;4950206;28;20026;-75
2023/07/07 02:13:44;;;;;;;2.30;1.33;;;;;;;;;;4950865;28;20032;-75
2023/07/07 02:16:09;;;;;;;1.90;1.30;;;;;;;;;;4951300;28;20030;-74
2023/07/07 02:18:37;;;;;;;1.70;1.23;;;;;;;;;;4950578;28;20061;-75
2023/07/07 02:21:05;;;;;;;3.03;1.30;;;;;;;;;;4949324;28;20472;-74
2023/07/07 02:23:30;;;;;;;2.03;1.30;;;;;;;;;;4958774;28;20047;-75
2023/07/07 02:25:56;;;;;;;2.72;1.58;;;;;;;;;;4958652;28;20035;-74
2023/07/07 02:28:21;;;;;;;3.45;1.92;;;;;;;;;;4951779;28;20031;-74
2023/07/07 02:30:47;;;;;;;1.42;1.33;;;;;;;;;;4950447;28;20031;-75
2023/07/07 02:33:12;;;;;;;1.38;1.23;;;;;;;;;;4952686;28;20617;-76
2023/07/07 02:35:39;;;;;;;1.30;1.20;;;;;;;;;;4965548;28;20363;-75
2023/07/07 02:38:04;;;;;;;2.17;1.50;;;;;;;;;;4953233;28;20070;-75
2023/07/07 02:40:30;;;;;;;1.50;1.40;;;;;;;;;;4952278;28;20141;-73
2023/07/07 02:42:55;;;;;;;1.23;1.13;;;;;;;;;;4954838;28;20555;-75
2023/07/07 02:45:21;;;;;;;1.73;1.63;;;;;;;;;;4957974;28;20534;-74
2023/07/07 02:47:46;;;;;;;1.50;1.40;;;;;;;;;;4964270;28;20603;-74
2023/07/07 02:50:11;;;;;;;2.35;1.77;;;;;;;;;;4951865;28;20035;-74
2023/07/07 02:52:37;;;;;;;2.88;1.33;;;;;;;;;;4951680;28;20033;-74
2023/07/07 02:55:02;;;;;;;3.78;1.40;;;;;;;;;;4958584;28;20018;-75
2023/07/07 02:57:28;;;;;;;2.47;1.50;;;;;;;;;;4964265;28;20105;-74
2023/07/07 02:59:53;;;;;;;1.70;1.60;;;;;;;;;;4950756;28;20030;-73
2023/07/07 03:02:19;;;;;;;1.67;1.50;;;;;;;;;;4950590;28;20093;-74
2023/07/07 03:04:48;;;;;;;1.90;1.52;;;;;;;;;;4959198;28;20373;-73
2023/07/07 03:07:14;;;;;;;1.40;1.30;;;;;;;;;;4956746;28;20306;-73
2023/07/07 03:09:39;;;;;;;1.40;1.20;;;;;;;;;;4961903;28;20415;-75
2023/07/07 03:12:05;;;;;;;2.05;1.50;;;;;;;;;;4950512;28;20105;-74
2023/07/07 03:14:30;;;;;;;2.00;1.60;;;;;;;;;;4951559;28;20387;-73
2023/07/07 03:16:57;;;;;;;2.00;1.70;;;;;;;;;;4954998;28;20058;-74
2023/07/07 03:19:23;;;;;;;1.65;1.20;;;;;;;;;;4951436;28;20034;-74
2023/07/07 03:21:48;;;;;;;1.85;1.73;;;;;;;;;;4945832;28;20023;-74
2023/07/07 03:24:15;;;;;;;1.63;1.52;;;;;;;;;;4949004;28;20034;-74
2023/07/07 03:26:41;;;;;;;1.50;1.40;;;;;;;;;;4958093;28;20026;-74
2023/07/07 03:29:06;;;;;;;2.53;1.77;;;;;;;;;;4959111;28;20384;-74
2023/07/07 03:31:32;;;;;;;1.70;1.60;;;;;;;;;;4958045;28;20464;-75
2023/07/07 03:34:03;;;;;;;2.35;1.73;;;;;;;;;;4951192;28;20067;-75
2023/07/07 03:36:30;;;;;;;2.10;1.90;;;;;;;;;;4953333;28;20070;-74
2023/07/07 03:38:56;;;;;;;4.03;1.50;;;;;;;;;;4960794;28;20027;-74
2023/07/07 03:41:26;;;;;;;2.40;1.70;;;;;;;;;;4957726;28;20106;-74
2023/07/07 03:43:53;;;;;;;4.50;1.75;;;;;;;;;;4952171;28;20031;-73
2023/07/07 03:46:20;;;;;;;2.25;1.65;;;;;;;;;;4948967;28;20024;-74
2023/07/07 03:48:47;;;;;;;2.28;1.80;;;;;;;;;;4956977;28;20019;-73
2023/07/07 03:51:13;;;;;;;1.70;1.60;;;;;;;;;;4956473;28;20023;-74
2023/07/07 03:53:39;;;;;;;3.90;2.22;;;;;;;;;;4954248;28;20042;-74
2023/07/07 03:56:05;;;;;;;3.95;2.17;;;;;;;;;;4948875;28;20050;-74
2023/07/07 03:58:32;;;;;;;3.40;1.95;;;;;;;;;;4952829;28;20487;-74
2023/07/07 04:01:05;;;;;;;2.53;2.30;;;;;;;;;;4955379;28;20042;-74
2023/07/07 04:03:31;;;;;;;3.88;1.95;;;;;;;;;;4950426;28;20427;-74
2023/07/07 04:05:57;;;;;;;1.77;1.42;;;;;;;;;;4953256;28;20503;-75
2023/07/07 04:08:25;;;;;;;1.58;1.45;;;;;;;;;;4947352;28;20046;-74
2023/07/07 04:11:06;;;;;;;2.58;2.17;;;;;;;;;;4947200;28;20476;-74
2023/07/07 04:13:34;;;;;;;2.30;2.10;;;;;;;;;;4948904;28;20532;-75
2023/07/07 04:16:08;;;;;;;2.75;2.40;;;;;;;;;;4956391;28;20288;-74
2023/07/07 04:18:34;;;;;;;3.75;2.30;;;;;;;;;;4949486;28;20031;-73
2023/07/07 04:21:09;;;;;;;3.70;2.38;;;;;;;;;;4955163;28;20110;-73
2023/07/07 04:23:37;;;;;;;3.42;2.50;;;;;;;;;;4953456;28;20023;-73
2023/07/07 04:26:03;;;;;;;3.63;2.40;;;;;;;;;;4953643;28;20043;-73
2023/07/07 04:28:31;;;;;;;4.40;2.42;;;;;;;;;;4944706;28;20445;-73
2023/07/07 04:30:58;;;;;;;3.95;2.08;;;;;;;;;;4940103;28;20038;-74
2023/07/07 04:33:25;;;;;;;4.40;2.40;;;;;;;;;;4944245;28;20027;-74
2023/07/07 04:35:53;;;;;;;3.22;2.30;;;;;;;;;;4939388;28;20027;-73
2023/07/07 04:38:19;;;;;;;3.97;2.47;;;;;;;;;;4941608;28;20019;-73
2023/07/07 04:40:45;;;;;;;3.55;2.20;;;;;;;;;;4946751;28;20031;-73
2023/07/07 04:43:11;;;;;;;5.80;2.22;;;;;;;;;;4944004;28;20047;-74
2023/07/07 04:45:36;;;;;;;2.80;2.20;;;;;;;;;;4940519;28;20044;-74
2023/07/07 04:48:02;;;;;;;2.67;2.00;;;;;;;;;;4948839;28;20022;-74
2023/07/07 04:50:27;;;;;;;2.67;2.17;;;;;;;;;;4945378;28;20035;-73
2023/07/07 04:52:53;;;;;;;4.43;2.00;;;;;;;;;;4940314;28;20106;-73
2023/07/07 04:55:18;;;;;;;3.60;2.30;;;;;;;;;;4943680;28;20023;-73
2023/07/07 04:57:44;;;;;;;2.63;2.00;;;;;;;;;;4937611;28;20023;-73
2023/07/07 05:00:10;;;;;;;4.45;2.28;;;;;;;;;;4945338;28;20090;-74
2023/07/07 05:02:35;;;;;;;2.88;2.40;;;;;;;;;;4942340;28;20074;-74
2023/07/07 05:05:01;;;;;;;3.38;2.38;;;;;;;;;;4947371;28;20021;-75
2023/07/07 05:07:28;;;;;;;4.28;2.50;;;;;;;;;;4949009;28;20468;-74
2023/07/07 05:09:54;;;;;;;3.10;2.20;;;;;;;;;;4942683;28;20499;-74
2023/07/07 05:12:20;;;;;;;3.28;2.20;;;;;;;;;;4937800;28;20039;-74
2023/07/07 05:14:45;;;;;;;3.95;2.10;;;;;;;;;;4939892;28;20114;-74
2023/07/07 05:17:10;;;;;;;3.20;2.05;;;;;;;;;;4942100;28;20040;-75
2023/07/07 05:19:36;;;;;;;4.47;2.53;;;;;;;;;;4946898;28;20026;-74
2023/07/07 05:22:01;;;;;;;2.45;2.25;;;;;;;;;;4947779;28;20027;-74
2023/07/07 05:24:27;;;;;;;3.65;2.42;;;;;;;;;;4946287;28;20019;-75
2023/07/07 05:26:53;;;;;;;4.25;2.50;;;;;;;;;;4940186;28;20031;-75
2023/07/07 05:29:19;;;;;;;4.22;2.50;;;;;;;;;;4939661;28;20027;-77
2023/07/07 05:31:45;;;;;;;3.50;2.08;;;;;;;;;;4935732;28;20027;-75
2023/07/07 05:34:10;;;;;;;3.53;2.28;;;;;;;;;;4943045;28;20031;-75
2023/07/07 05:36:36;;;;;;;4.35;2.10;;;;;;;;;;4925486;29;20038;-75
2023/07/07 05:39:04;;;;;;;4.45;2.72;;;;;;;;;;4943671;28;20023;-75
2023/07/07 05:41:29;;;;;;;2.50;2.30;;;;;;;;;;4939477;28;20019;-75
2023/07/07 05:43:55;;;;;;;2.95;2.47;;;;;;;;;;4940325;28;20455;-75
2023/07/07 05:46:21;;;;;;;2.67;2.22;;;;;;;;;;4942871;28;20034;-75
2023/07/07 05:48:46;;;;;;;3.35;2.33;;;;;;;;;;4935007;28;20122;-75
2023/07/07 05:51:14;;;;;;;3.30;2.17;;;;;;;;;;4945171;28;20038;-75
2023/07/07 05:53:40;;;;;;;3.17;2.30;;;;;;;;;;4948625;28;20389;-75
2023/07/07 05:56:19;;;;;;;2.20;2.00;;;;;;;;;;4952000;28;20540;-75
2023/07/07 05:58:44;;;;;;;3.17;2.28;;;;;;;;;;4949547;28;20063;-75
2023/07/07 06:01:13;;;;;;;5.13;2.40;;;;;;;;;;4951035;28;20431;-75
2023/07/07 06:03:39;;;;;;;3.60;2.47;;;;;;;;;;4956733;28;20119;-75
2023/07/07 06:06:06;;;;;;;3.63;2.50;;;;;;;;;;4956258;28;20102;-75
2023/07/07 06:08:31;;;;;;;4.07;2.03;;;;;;;;;;4948584;28;20376;-74
2023/07/07 06:10:57;;;;;;;3.88;2.30;;;;;;;;;;4952147;28;20024;-75
2023/07/07 06:13:24;;;;;;;3.50;2.00;;;;;;;;;;4957693;28;20031;-75
2023/07/07 06:15:53;;;;;;;1.92;1.50;;;;;;;;;;4951229;28;20023;-75
2023/07/07 06:18:19;;;;;;;2.40;2.20;;;;;;;;;;4949764;28;20209;-73
2023/07/07 06:20:50;;;;;;;5.53;2.58;;;;;;;;;;4950234;28;20388;-74
2023/07/07 06:23:15;;;;;;;1.52;1.30;;;;;;;;;;4947725;28;20453;-75
2023/07/07 06:25:41;;;;;;;3.42;2.10;;;;;;;;;;4953871;28;20035;-75
2023/07/07 06:28:07;;;;;;;2.00;1.83;;;;;;;;;;4959024;28;20030;-75
2023/07/07 06:30:32;;;;;;;4.10;2.13;;;;;;;;;;4949608;28;20040;-76
2023/07/07 06:32:59;;;;;;;5.00;2.35;;;;;;;;;;4920145;28;20535;-75
2023/07/07 06:35:27;;;;;;;4.10;1.90;;;;;;;;;;4932360;28;20035;-75
2023/07/07 06:37:52;;;;;;;3.90;2.50;;;;;;;;;;4947456;28;20444;-75
2023/07/07 06:40:18;;;;;;;3.70;2.00;;;;;;;;;;4948268;28;20028;-75
2023/07/07 06:42:43;;;;;;;4.75;1.98;;;;;;;;;;4946408;28;20048;-75
2023/07/07 06:45:09;;;;;;;3.25;1.88;;;;;;;;;;4946621;28;20055;-75
2023/07/07 06:47:35;;;;;;;4.70;3.47;;;;;;;;;;4942423;28;20287;-74
2023/07/07 06:50:00;;;;;;;5.18;2.03;;;;;;;;;;4947632;28;20027;-75
2023/07/07 06:52:25;;;;;;;3.40;2.20;;;;;;;;;;4949750;28;20069;-75
2023/07/07 06:54:52;;;;;;;3.33;1.85;;;;;;;;;;4947819;28;21128;-76
2023/07/07 06:57:18;;;;;;;3.13;1.95;;;;;;;;;;4949071;28;20432;-75
2023/07/07 06:59:43;;;;;;;4.15;2.15;;;;;;;;;;4946361;28;20038;-74
2023/07/07 07:02:12;;;;;;;4.05;2.05;;;;;;;;;;4945270;28;20050;-75
2023/07/07 07:04:41;;;;;;;3.90;2.30;;;;;;;;;;4938351;28;20044;-75
2023/07/07 07:07:09;;;;;;;3.90;2.13;;;;;;;;;;4946370;28;20035;-75
2023/07/07 07:09:35;;;;;;;4.18;1.88;;;;;;;;;;4943224;28;20108;-75
2023/07/07 07:12:00;;;;;;;4.43;1.90;;;;;;;;;;4929984;28;20060;-75
2023/07/07 07:14:25;;;;;;;2.58;1.80;;;;;;;;;;4946954;28;20492;-75
2023/07/07 07:16:51;;;;;;;4.10;1.60;;;;;;;;;;4941871;28;20031;-74
2023/07/07 07:19:16;;;;;;;2.47;1.77;;;;;;;;;;4932837;28;20087;-74
2023/07/07 07:21:42;;;;;;;3.65;1.92;;;;;;;;;;4936843;28;20023;-75
2023/07/07 07:24:07;;;;;;;2.50;1.70;;;;;;;;;;4943900;28;20027;-74
2023/07/07 07:26:32;;;;;;;2.70;1.73;;;;;;;;;;4944421;28;20395;-75
2023/07/07 07:28:58;;;;;;;2.47;1.30;;;;;;;;;;4946376;28;20458;-75
2023/07/07 07:31:23;;;;;;;2.90;2.00;;;;;;;;;;4943832;28;20035;-75
2023/07/07 07:33:52;;;;;;;1.55;1.45;;;;;;;;;;4946792;28;20032;-75
2023/07/07 07:36:18;;;;;;;3.58;1.88;;;;;;;;;;4944294;28;20024;-76
2023/07/07 07:38:43;;;;;;;5.22;2.13;;;;;;;;;;4939115;28;20455;-75
2023/07/07 07:41:09;;;;;;;5.25;2.08;;;;;;;;;;4942348;28;20026;-75
2023/07/07 07:43:34;;;;;;;4.03;2.08;;;;;;;;;;4944629;28;20126;-76
2023/07/07 07:45:59;;;;;;;4.85;1.85;;;;;;;;;;4944294;28;20377;-75
2023/07/07 07:48:25;;;;;;;5.70;2.30;;;;;;;;;;4943179;28;20027;-76
2023/07/07 07:50:50;;;;;;;2.53;2.05;;;;;;;;;;4946747;28;20026;-75
2023/07/07 07:53:16;;;;;;;3.45;2.25;;;;;;;;;;4942132;28;20031;-76
2023/07/07 07:55:41;;;;;;;2.10;1.90;;;;;;;;;;4944508;28;20531;-76
2023/07/07 07:58:06;;;;;;;3.17;1.70;;;;;;;;;;4944549;28;20062;-75
2023/07/07 08:00:32;;;;;;;3.05;1.95;;;;;;;;;;4947035;28;20082;-76
2023/07/07 08:02:57;;;;;;;5.13;2.08;;;;;;;;;;4943370;28;20062;-76
2023/07/07 08:05:23;;;;;;;4.20;1.90;;;;;;;;;;4946869;28;20024;-75
2023/07/07 08:07:48;;;;;;;2.10;1.90;;;;;;;;;;4942470;28;20097;-75
2023/07/07 08:10:13;;;;;;;2.42;1.80;;;;;;;;;;4946005;28;20118;-76
2023/07/07 08:12:39;;;;;;;2.47;1.10;;;;;;;;;;4946831;28;20034;-76
2023/07/07 08:15:05;;;;;;;3.28;1.75;;;;;;;;;;4944957;28;20487;-76
2023/07/07 08:17:31;;;;;;;3.65;1.77;;;;;;;;;;4944878;28;20141;-76
2023/07/07 08:19:57;;;;;;;1.80;1.60;;;;;;;;;;4946032;28;20055;-76
2023/07/07 08:22:25;;;;;;;3.10;1.60;;;;;;;;;;4945759;28;20030;-76
2023/07/07 08:24:56;;;;;;;5.90;2.00;;;;;;;;;;4944802;28;20031;-75
2023/07/07 08:27:23;;;;;;;3.05;1.92;;;;;;;;;;4946626;28;20023;-76
2023/07/07 08:29:49;;;;;;;4.03;2.10;;;;;;;;;;4946356;28;20032;-76
2023/07/07 08:32:18;;;;;;;2.63;2.08;;;;;;;;;;4945248;28;20039;-76
2023/07/07 08:34:44;;;;;;;2.67;2.00;;;;;;;;;;4945315;28;20425;-76
2023/07/07 08:37:10;;;;;;;2.13;1.70;;;;;;;;;;4941481;28;20477;-76
2023/07/07 08:39:36;;;;;;;3.38;1.90;;;;;;;;;;4945782;28;20085;-75
2023/07/07 08:42:21;;;;;;;3.00;1.80;;;;;;;;;;4942887;28;20373;-76
2023/07/07 08:44:46;;;;;;;2.05;1.80;;;;;;;;;;4943150;28;20059;-76
2023/07/07 08:47:27;;;;;;;2.60;1.67;;;;;;;;;;4946700;28;20073;-76
2023/07/07 08:50:07;;;;;;;1.60;1.50;;;;;;;;;;4942099;28;20113;-76
2023/07/07 08:52:48;;;;;;;3.40;1.98;;;;;;;;;;4943637;28;20053;-75
2023/07/07 08:55:25;;;;;;;;;;;;;;;;;;4933865;28;20027;-76
2023/07/07 08:58:04;;;;;;;1.45;1.30;;;;;;;;;;4935561;28;19965;-74
2023/07/07 09:01:13;;;;;;;1.48;1.23;;;;;;;;;;4941226;28;20051;-76
2023/07/07 09:03:49;;;;;;;1.75;1.40;;;;;;;;;;4943098;28;20500;-76
2023/07/07 09:06:40;;;;;;;1.92;1.42;;;;;;;;;;4939517;28;20340;-76
2023/07/07 09:09:44;;;;;;;3.17;1.63;;;;;;;;;;4941189;28;20723;-76
2023/07/07 09:12:22;;;;;;;2.58;1.58;;;;;;;;;;4938339;28;20031;-76
2023/07/07 09:14:50;;;;;;;2.60;1.40;;;;;;;;;;4939902;28;20397;-76
2023/07/07 09:17:25;;;;;;;2.65;1.70;;;;;;;;;;4941311;28;20384;-75
2023/07/07 09:19:53;;;;;;;1.60;1.25;;;;;;;;;;4933827;28;20030;-76
2023/07/07 09:22:38;;;;;;;3.53;1.90;;;;;;;;;;4936125;28;20046;-76
2023/07/07 09:25:19;;;;;;;2.97;1.17;;;;;;;;;;4938404;28;20043;-76
2023/07/07 09:27:53;;;;;;;4.43;1.65;;;;;;;;;;4946260;28;20042;-76
2023/07/07 09:30:32;;;;;;;2.05;1.48;;;;;;;;;;4941699;28;20119;-75
2023/07/07 09:32:57;;;;;;;2.95;1.42;;;;;;;;;;4942529;28;20059;-76
2023/07/07 09:35:27;;;;;;;2.20;1.58;;;;;;;;;;4945205;28;20043;-75
2023/07/07 09:38:05;;;;;;;1.38;1.27;;;;;;;;;;4943154;28;20025;-76
2023/07/07 09:40:52;;;;;;;2.20;1.52;;;;;;;;;;4940359;28;20041;-76
2023/07/07 09:43:23;;;;;;;1.55;1.30;;;;;;;;;;4941258;28;20026;-75
2023/07/07 09:46:24;;;;;;;2.17;2.03;;;;;;;;;;4931027;28;20521;-76
2023/07/07 09:49:14;;;;;;;1.55;1.35;;;;;;;;;;4929616;28;20042;-76
2023/07/07 09:52:11;;;;;;;2.78;1.42;;;;;;;;;;4938125;28;20027;-75
2023/07/07 09:54:38;;;;;;;4.35;1.95;;;;;;;;;;4941595;28;20039;-76
2023/07/07 09:57:11;;;;;;;2.38;1.45;;;;;;;;;;4942988;28;20023;-76
2023/07/07 09:59:45;;;;;;;2.05;1.30;;;;;;;;;;4939602;28;20189;-75
2023/07/07 10:02:18;;;;;;;1.27;1.17;;;;;;;;;;4938776;28;20027;-75
2023/07/07 10:04:48;;;;;;;2.63;1.10;;;;;;;;;;4939565;28;20478;-75
2023/07/07 10:07:17;;;;;;;2.30;1.40;;;;;;;;;;4941317;28;20472;-75
2023/07/07 10:09:43;;;;;;;2.33;1.60;;;;;;;;;;4938905;28;20380;-76
2023/07/07 10:12:14;;;;;;;2.40;1.40;;;;;;;;;;4943310;28;20475;-76
2023/07/07 10:14:41;;;;;;;1.85;1.38;;;;;;;;;;4940175;28;20421;-75
2023/07/07 10:17:20;;;;;;;2.30;1.30;;;;;;;;;;4940889;28;20034;-76
2023/07/07 10:19:53;;;;;;;2.58;1.50;;;;;;;;;;4939054;28;20511;-76
2023/07/07 10:22:20;;;;;;;0.98;0.90;;;;;;;;;;4935740;28;20027;-75
2023/07/07 10:24:45;;;;;;;1.60;1.20;;;;;;;;;;4935967;28;20027;-75
2023/07/07 10:27:12;;;;;;;2.25;1.30;;;;;;;;;;4938874;28;20135;-76
2023/07/07 10:29:42;;;;;;;3.30;1.30;;;;;;;;;;4936759;28;20031;-76
2023/07/07 10:32:26;;;;;;;2.30;1.40;;;;;;;;;;4940990;28;20031;-77
2023/07/07 10:34:56;;;;;;;1.98;1.50;;;;;;;;;;4940379;28;20031;-76
2023/07/07 10:37:26;;;;;;;3.33;1.20;;;;;;;;;;4936913;28;20034;-76
2023/07/07 10:39:57;;;;;;;1.50;1.25;;;;;;;;;;4946034;28;20313;-76
2023/07/07 10:42:24;;;;;;;2.03;1.52;;;;;;;;;;4944418;28;20157;-76
2023/07/07 10:44:51;;;;;;;1.60;1.20;;;;;;;;;;4943730;28;20290;-76
2023/07/07 10:47:24;;;;;;;4.78;1.95;;;;;;;;;;4944240;28;20596;-76
2023/07/07 10:49:49;;;;;;;2.63;1.40;;;;;;;;;;4947171;28;20101;-78
2023/07/07 10:52:49;;;;;;;1.30;1.20;;;;;;;;;;4934809;29;20403;-76
2023/07/07 10:55:37;;;;;;;1.17;1.08;;;;;;;;;;4944053;28;20027;-76
2023/07/07 10:58:28;;;;;;;2.30;1.60;;;;;;;;;;4941528;28;20093;-76
2023/07/07 11:01:14;;;;;;;2.53;1.27;;;;;;;;;;4943627;28;20028;-76
2023/07/07 11:04:04;;;;;;;2.15;1.38;;;;;;;;;;4944346;28;20082;-76
2023/07/07 11:06:40;;;;;;;1.30;1.20;;;;;;;;;;4944426;28;20086;-75
2023/07/07 11:09:46;;;;;;;2.08;1.27;;;;;;;;;;4945761;28;20027;-76
2023/07/07 11:12:41;;;;;;;1.20;1.10;;;;;;;;;;4943010;28;20488;-76
2023/07/07 11:15:27;;;;;;;2.08;1.25;;;;;;;;;;4945560;28;20045;-76
2023/07/07 11:18:02;;;;;;;1.40;1.30;;;;;;;;;;4945658;28;20509;-76
2023/07/07 11:20:36;;;;;;;1.77;1.15;;;;;;;;;;4941575;28;20050;-76
2023/07/07 11:23:24;;;;;;;1.40;1.30;;;;;;;;;;4944636;28;20057;-76
2023/07/07 11:26:08;;;;;;;1.33;1.17;;;;;;;;;;4931901;28;20044;-76
2023/07/07 11:28:55;;;;;;;1.38;1.20;;;;;;;;;;4946406;28;20047;-76
2023/07/07 11:31:45;;;;;;;3.10;1.38;;;;;;;;;;4943549;28;20320;-76
2023/07/07 11:34:10;;;;;;;;;;;;;;;;;;4938042;28;20034;-76
2023/07/07 11:37:07;;;;;;;1.60;1.30;;;;;;;;;;4939393;28;19912;-76
2023/07/07 11:39:51;;;;;;;1.80;1.20;;;;;;;;;;4938606;28;20270;-76
2023/07/07 11:42:42;;;;;;;1.77;1.30;;;;;;;;;;4936432;28;20027;-76
2023/07/07 11:45:37;;;;;;;1.20;1.10;;;;;;;;;;4937963;28;20436;-76
2023/07/07 11:48:40;;;;;;;1.65;1.27;;;;;;;;;;4941131;28;20415;-76
2023/07/07 11:51:21;;;;;;;1.35;1.25;;;;;;;;;;4939730;28;20027;-76
2023/07/07 11:54:05;;;;;;;3.60;1.20;;;;;;;;;;4944335;28;20019;-76
2023/07/07 11:57:14;;;;;;;1.95;1.27;;;;;;;;;;4938050;28;20145;-76
2023/07/07 11:59:52;;;;;;;1.80;1.10;;;;;;;;;;4938400;28;20039;-76
2023/07/07 12:02:28;;;;;;;1.40;1.30;;;;;;;;;;4940875;28;20392;-76
2023/07/07 12:04:57;;;;;;;2.33;1.50;;;;;;;;;;4945025;28;20031;-76
2023/07/07 12:07:27;;;;;;;1.90;1.35;;;;;;;;;;4942497;28;20514;-76
2023/07/07 12:09:59;;;;;;;2.10;1.40;;;;;;;;;;4940698;28;20023;-76
2023/07/07 12:12:38;;;;;;;1.63;1.35;;;;;;;;;;4936157;28;20035;-76
2023/07/07 12:15:04;;;;;;;;;;;;;;;;;;4934884;28;20024;-76
2023/07/07 12:17:39;;;;;;;1.65;1.45;;;;;;;;;;4939297;28;19918;-76
2023/07/07 12:20:13;;;;;;;1.50;1.30;;;;;;;;;;4937127;28;20035;-76
2023/07/07 12:22:42;;;;;;;1.63;1.33;;;;;;;;;;4938033;28;20058;-76
2023/07/07 12:25:24;;;;;;;2.30;1.33;;;;;;;;;;4933054;28;20027;-76
2023/07/07 12:27:51;;;;;;;1.90;1.48;;;;;;;;;;4940469;28;20031;-76
2023/07/07 12:30:32;;;;;;;8.98;1.58;;;;;;;;;;4939503;28;20030;-76
2023/07/07 12:32:59;;;;;;;2.15;1.42;;;;;;;;;;4935693;28;20031;-76
2023/07/07 12:35:51;;;;;;;1.42;1.15;;;;;;;;;;4939202;28;20011;-76
2023/07/07 12:38:31;;;;;;;1.88;1.60;;;;;;;;;;4938377;28;20035;-76
2023/07/07 12:41:04;;;;;;;2.08;1.20;;;;;;;;;;4935087;28;20023;-76
2023/07/07 12:43:43;;;;;;;1.80;1.20;;;;;;;;;;4934888;28;20031;-76
2023/07/07 12:46:28;;;;;;;1.87;1.30;;;;;;;;;;4935052;28;20035;-76
2023/07/07 12:48:57;;;;;;;1.13;1.08;;;;;;;;;;4938647;28;20033;-76
2023/07/07 12:51:24;;;;;;;1.85;1.55;;;;;;;;;;4934590;28;20075;-76
2023/07/07 12:53:54;;;;;;;2.17;1.58;;;;;;;;;;4937240;28;20066;-76
2023/07/07 12:56:23;;;;;;;1.77;1.20;;;;;;;;;;4938664;28;21040;-76
2023/07/07 12:58:55;;;;;;;1.97;1.40;;;;;;;;;;4937600;28;20022;-76
2023/07/07 13:01:38;;;;;;;1.60;1.45;;;;;;;;;;4931765;28;20027;-76
2023/07/07 13:04:07;;;;;;;2.45;1.42;;;;;;;;;;4936278;28;20436;-76
2023/07/07 13:06:42;;;;;;;2.22;1.27;;;;;;;;;;4935475;28;20030;-76
2023/07/07 13:09:13;;;;;;;1.30;1.20;;;;;;;;;;4937467;28;20027;-76
2023/07/07 13:11:46;;;;;;;1.52;1.42;;;;;;;;;;4938939;28;20503;-76
2023/07/07 13:14:36;;;;;;;2.03;1.50;;;;;;;;;;4934638;28;20361;-76
2023/07/07 13:17:11;;;;;;;1.80;1.45;;;;;;;;;;4935250;28;20715;-76
2023/07/07 13:19:39;;;;;;;1.80;1.40;;;;;;;;;;4938868;28;20035;-76
2023/07/07 13:22:23;;;;;;;1.95;1.38;;;;;;;;;;4933766;28;20055;-76
2023/07/07 13:24:49;;;;;;;3.03;2.17;;;;;;;;;;4940519;28;20027;-76
2023/07/07 13:27:22;;;;;;;1.65;1.45;;;;;;;;;;4940690;28;20023;-76
2023/07/07 13:29:49;;;;;;;1.63;1.30;;;;;;;;;;4937983;28;20419;-75
2023/07/07 13:32:29;;;;;;;1.55;1.27;;;;;;;;;;4939073;28;20664;-75
2023/07/07 13:35:00;;;;;;;2.08;1.40;;;;;;;;;;4939015;28;20495;-75
2023/07/07 13:37:28;;;;;;;3.88;1.60;;;;;;;;;;4944310;28;20034;-75
2023/07/07 13:39:54;;;;;;;2.28;1.38;;;;;;;;;;4935444;28;20335;-75
2023/07/07 13:42:27;;;;;;;1.92;1.42;;;;;;;;;;4942005;28;20043;-75
2023/07/07 13:45:19;;;;;;;1.35;1.20;;;;;;;;;;4940943;28;20049;-75
2023/07/07 13:47:55;;;;;;;2.30;1.40;;;;;;;;;;4936411;28;20059;-75
2023/07/07 13:50:24;;;;;;;1.77;1.33;;;;;;;;;;4939689;28;20038;-75
2023/07/07 13:52:56;;;;;;;1.67;1.50;;;;;;;;;;4938429;28;20031;-75
2023/07/07 13:55:22;;;;;;;1.52;1.38;;;;;;;;;;4940221;28;20273;-75
2023/07/07 13:57:47;;;;;;;1.77;1.30;;;;;;;;;;4939789;28;20675;-75
2023/07/07 14:00:39;;;;;;;1.23;0.95;;;;;;;;;;4943121;28;20027;-75
2023/07/07 14:03:12;;;;;;;1.55;1.45;;;;;;;;;;4935696;28;20036;-75
2023/07/07 14:05:38;;;;;;;1.38;1.10;;;;;;;;;;4937961;28;20028;-75
2023/07/07 14:08:13;;;;;;;1.65;1.30;;;;;;;;;;4940094;28;20031;-75
2023/07/07 14:10:43;;;;;;;1.23;1.13;;;;;;;;;;4938580;28;20566;-75
2023/07/07 14:13:20;;;;;;;1.88;1.40;;;;;;;;;;4944903;28;20078;-75
2023/07/07 14:16:15;;;;;;;2.72;1.25;;;;;;;;;;4944104;28;20050;-75
2023/07/07 14:18:58;;;;;;;1.55;1.45;;;;;;;;;;4943510;28;20046;-75
2023/07/07 14:21:23;;;;;;;2.15;1.60;;;;;;;;;;4945110;28;20027;-75
2023/07/07 14:23:50;;;;;;;1.40;1.30;;;;;;;;;;4939067;28;20050;-75
2023/07/07 14:26:19;;;;;;;1.50;1.25;;;;;;;;;;4941874;28;20024;-75
2023/07/07 14:28:46;;;;;;;1.27;1.02;;;;;;;;;;4939446;28;20598;-75
2023/07/07 14:31:13;;;;;;;1.52;1.33;;;;;;;;;;4939706;28;20051;-75
2023/07/07 14:34:00;;;;;;;1.60;1.50;;;;;;;;;;4943785;28;20058;-75
2023/07/07 14:36:29;;;;;;;1.58;1.42;;;;;;;;;;4940513;28;20031;-75
2023/07/07 14:38:59;;;;;;;1.60;1.50;;;;;;;;;;4943243;28;20015;-75
2023/07/07 14:41:28;;;;;;;3.33;1.50;;;;;;;;;;4948892;28;20027;-75
2023/07/07 14:43:54;;;;;;;1.60;1.50;;;;;;;;;;4941658;28;20056;-75
2023/07/07 14:46:25;;;;;;;1.08;0.95;;;;;;;;;;4942348;28;20039;-75
2023/07/07 14:48:57;;;;;;;1.45;1.35;;;;;;;;;;4944528;28;20039;-76
2023/07/07 14:51:29;;;;;;;1.50;1.40;;;;;;;;;;4948335;28;20082;-76
2023/07/07 14:54:00;;;;;;;2.05;1.48;;;;;;;;;;4949956;28;20031;-75
2023/07/07 14:56:35;;;;;;;1.60;1.50;;;;;;;;;;4947512;28;20035;-76
2023/07/07 14:59:14;;;;;;;1.85;1.45;;;;;;;;;;4958249;28;20081;-76
2023/07/07 15:01:41;;;;;;;2.30;1.60;;;;;;;;;;4947478;28;20043;-76
2023/07/07 15:04:13;;;;;;;1.48;1.33;;;;;;;;;;4951863;28;20019;-76
2023/07/07 15:06:43;;;;;;;1.88;1.60;;;;;;;;;;4949648;28;20114;-76